createdAt,value
2023-06-20T00:01:00.588Z,22.20
2023-06-20T00:03:27.361Z,22.10
2023-06-20T00:05:54.084Z,21.70
2023-06-20T00:08:20.792Z,21.40
2023-06-20T00:10:47.855Z,21.50
2023-06-20T00:13:14.596Z,21.70
2023-06-20T00:15:42.596Z,22.20
2023-06-20T00:18:09.565Z,21.90
2023-06-20T00:20:39.608Z,22.10
2023-06-20T00:23:07.925Z,22.10
2023-06-20T00:25:34.786Z,22.10
2023-06-20T00:28:03.437Z,21.90
2023-06-20T00:30:30.362Z,21.50
2023-06-20T00:32:59.790Z,21.40
2023-06-20T00:35:27.296Z,21.10
2023-06-20T00:37:54.560Z,21.30
2023-06-20T00:40:21.279Z,21.60
2023-06-20T00:42:48.388Z,21.60
2023-06-20T00:45:35.203Z,21.60
2023-06-20T00:48:04.827Z,21.60
2023-06-20T00:50:32.750Z,21.30
2023-06-20T00:53:06.606Z,20.90
2023-06-20T00:55:35.311Z,21.60
2023-06-20T00:58:04.178Z,21.40
2023-06-20T01:00:33.825Z,21.00
2023-06-20T01:03:13.198Z,21.40
2023-06-20T01:05:42.175Z,21.40
2023-06-20T01:08:16.306Z,21.50
2023-06-20T01:10:56.703Z,21.60
2023-06-20T01:13:23.556Z,21.50
2023-06-20T01:16:11.573Z,21.50
2023-06-20T01:18:45.266Z,21.40
2023-06-20T01:21:18.324Z,21.20
2023-06-20T01:23:55.573Z,20.80
2023-06-20T01:26:36.714Z,21.40
2023-06-20T01:29:29.138Z,21.10
2023-06-20T01:31:58.724Z,21.30
2023-06-20T01:34:29.387Z,21.40
2023-06-20T01:36:59.219Z,21.40
2023-06-20T01:39:31.142Z,21.20
2023-06-20T01:42:02.375Z,21.30
2023-06-20T01:44:34.155Z,21.40
2023-06-20T01:47:03.290Z,21.30
2023-06-20T01:49:31.266Z,21.80
2023-06-20T01:51:58.996Z,21.60
2023-06-20T01:54:28.871Z,21.70
2023-06-20T01:57:00.530Z,21.50
2023-06-20T01:59:28.695Z,21.20
2023-06-20T02:01:57.854Z,21.30
2023-06-20T02:04:26.746Z,21.60
2023-06-20T02:06:54.318Z,21.30
2023-06-20T02:09:21.578Z,21.10
2023-06-20T02:11:49.548Z,20.80
2023-06-20T02:14:17.036Z,21.00
2023-06-20T02:16:46.330Z,21.20
2023-06-20T02:19:13.058Z,21.40
2023-06-20T02:21:43.107Z,21.10
2023-06-20T02:24:15.225Z,21.20
2023-06-20T02:26:45.007Z,21.20
2023-06-20T02:29:13.464Z,21.40
2023-06-20T02:31:44.678Z,21.00
2023-06-20T02:34:15.300Z,21.10
2023-06-20T02:36:44.595Z,20.60
2023-06-20T02:39:11.993Z,21.00
2023-06-20T02:41:43.000Z,21.40
2023-06-20T02:44:10.180Z,21.40
2023-06-20T02:47:02.492Z,21.40
2023-06-20T02:49:53.969Z,21.40
2023-06-20T02:52:29.874Z,21.30
2023-06-20T02:55:18.964Z,21.10
2023-06-20T02:57:52.731Z,20.90
2023-06-20T03:00:20.866Z,21.00
2023-06-20T03:03:05.780Z,21.10
2023-06-20T03:05:37.161Z,21.00
2023-06-20T03:08:05.273Z,21.20
2023-06-20T03:10:33.209Z,21.00
2023-06-20T03:13:00.557Z,21.10
2023-06-20T03:15:28.562Z,21.10
2023-06-20T03:17:55.546Z,21.20
2023-06-20T03:20:22.379Z,21.30
2023-06-20T03:22:49.134Z,21.30
2023-06-20T03:25:15.931Z,21.20
2023-06-20T03:27:42.872Z,21.80
2023-06-20T03:30:10.256Z,21.40
2023-06-20T03:32:37.084Z,21.30
2023-06-20T03:35:05.368Z,21.70
2023-06-20T03:37:32.051Z,21.30
2023-06-20T03:39:58.721Z,21.30
2023-06-20T03:42:25.587Z,20.90
2023-06-20T03:44:52.424Z,21.10
2023-06-20T03:47:19.579Z,21.10
2023-06-20T03:49:46.335Z,21.00
2023-06-20T03:52:13.168Z,21.40
2023-06-20T03:54:40.578Z,21.50
2023-06-20T03:57:07.559Z,21.30
2023-06-20T03:59:34.379Z,21.30
2023-06-20T04:02:01.093Z,21.20
2023-06-20T04:04:27.842Z,21.00
2023-06-20T04:06:54.512Z,21.10
2023-06-20T04:09:21.368Z,21.20
2023-06-20T04:11:48.154Z,20.90
2023-06-20T04:14:14.893Z,21.10
2023-06-20T04:16:41.630Z,21.20
2023-06-20T04:19:08.498Z,21.30
2023-06-20T04:21:35.297Z,21.30
2023-06-20T04:24:02.196Z,21.30
2023-06-20T04:26:30.530Z,21.00
2023-06-20T04:29:00.394Z,21.20
2023-06-20T04:31:27.082Z,21.30
2023-06-20T04:33:55.810Z,21.40
2023-06-20T04:36:22.521Z,21.10
2023-06-20T04:38:49.280Z,21.10
2023-06-20T04:41:16.273Z,21.00
2023-06-20T04:43:45.989Z,21.20
2023-06-20T04:46:16.581Z,20.80
2023-06-20T04:48:43.846Z,20.90
2023-06-20T04:51:11.309Z,21.00
2023-06-20T04:53:38.567Z,20.90
2023-06-20T04:56:06.407Z,20.90
2023-06-20T04:58:33.139Z,20.90
2023-06-20T05:01:00.842Z,21.20
2023-06-20T05:03:28.370Z,21.00
2023-06-20T05:05:55.323Z,21.00
2023-06-20T05:08:22.262Z,21.10
2023-06-20T05:10:49.110Z,21.30
2023-06-20T05:13:15.987Z,21.30
2023-06-20T05:15:42.799Z,21.60
2023-06-20T05:18:09.668Z,21.50
2023-06-20T05:20:36.487Z,21.50
2023-06-20T05:23:03.415Z,21.80
2023-06-20T05:25:31.090Z,22.00
2023-06-20T05:27:58.018Z,22.00
2023-06-20T05:30:25.123Z,21.70
2023-06-20T05:32:53.307Z,21.50
2023-06-20T05:35:20.451Z,21.50
2023-06-20T05:37:50.573Z,21.50
2023-06-20T05:40:17.730Z,21.90
2023-06-20T05:42:44.557Z,21.80
2023-06-20T05:45:11.617Z,22.20
2023-06-20T05:47:38.499Z,22.30
2023-06-20T05:50:05.993Z,21.90
2023-06-20T05:52:32.911Z,21.70
2023-06-20T05:55:00.046Z,21.50
2023-06-20T05:57:27.252Z,21.80
2023-06-20T05:59:54.080Z,22.10
2023-06-20T06:02:23.624Z,21.70
2023-06-20T06:04:51.569Z,21.60
2023-06-20T06:07:18.774Z,21.90
2023-06-20T06:09:47.801Z,22.30
2023-06-20T06:12:14.894Z,22.70
2023-06-20T06:14:42.372Z,23.00
2023-06-20T06:17:09.297Z,23.10
2023-06-20T06:19:36.503Z,23.30
2023-06-20T06:22:04.067Z,23.40
2023-06-20T06:24:31.167Z,24.10
2023-06-20T06:26:57.973Z,24.10
2023-06-20T06:29:26.746Z,24.30
2023-06-20T06:31:54.347Z,24.30
2023-06-20T06:34:21.061Z,24.60
2023-06-20T06:36:50.603Z,24.40
2023-06-20T06:39:19.020Z,24.70
2023-06-20T06:41:52.911Z,24.90
2023-06-20T06:44:20.056Z,25.30
2023-06-20T06:46:46.954Z,25.40
2023-06-20T06:49:13.813Z,25.30
2023-06-20T06:51:41.391Z,24.90
2023-06-20T06:54:14.214Z,24.90
2023-06-20T06:56:40.934Z,25.00
2023-06-20T06:59:08.446Z,25.20
2023-06-20T07:01:36.326Z,25.70
2023-06-20T07:04:03.227Z,25.90
2023-06-20T07:06:30.680Z,25.70
2023-06-20T07:08:57.433Z,25.50
2023-06-20T07:11:25.588Z,25.50
2023-06-20T07:13:52.336Z,25.50
2023-06-20T07:16:19.135Z,25.20
2023-06-20T07:18:45.920Z,25.50
2023-06-20T07:21:12.711Z,25.60
2023-06-20T07:23:39.597Z,25.30
2023-06-20T07:26:09.588Z,25.10
2023-06-20T07:28:37.326Z,25.30
2023-06-20T07:31:04.160Z,25.40
2023-06-20T07:33:30.893Z,24.90
2023-06-20T07:36:01.612Z,25.20
2023-06-20T07:38:28.320Z,25.40
2023-06-20T07:40:55.261Z,25.40
2023-06-20T07:43:28.262Z,25.70
2023-06-20T07:45:55.384Z,25.80
2023-06-20T07:48:26.101Z,25.90
2023-06-20T07:50:52.905Z,26.20
2023-06-20T07:53:19.998Z,26.20
2023-06-20T07:55:46.689Z,26.60
2023-06-20T07:58:13.402Z,26.80
2023-06-20T08:00:41.808Z,26.70
2023-06-20T08:03:08.792Z,26.60
2023-06-20T08:05:35.601Z,26.60
2023-06-20T08:08:02.345Z,26.40
2023-06-20T08:10:29.107Z,27.30
2023-06-20T08:12:55.868Z,26.60
2023-06-20T08:15:23.092Z,27.10
2023-06-20T08:17:50.077Z,27.10
2023-06-20T08:20:16.966Z,27.20
2023-06-20T08:22:43.727Z,27.10
2023-06-20T08:25:11.594Z,26.60
2023-06-20T08:27:38.384Z,26.80
2023-06-20T08:30:05.784Z,26.90
2023-06-20T08:32:32.564Z,27.60
2023-06-20T08:34:59.437Z,27.60
2023-06-20T08:37:27.332Z,27.00
2023-06-20T08:39:54.284Z,27.60
2023-06-20T08:42:21.029Z,27.70
2023-06-20T08:44:57.564Z,28.00
2023-06-20T08:47:25.534Z,27.60
2023-06-20T08:49:52.716Z,27.40
2023-06-20T08:52:29.635Z,27.40
2023-06-20T08:54:58.774Z,27.40
2023-06-20T08:57:26.859Z,27.60
2023-06-20T08:59:55.845Z,27.90
2023-06-20T09:02:23.217Z,28.00
2023-06-20T09:05:06.549Z,27.70
2023-06-20T09:07:38.997Z,27.50
2023-06-20T09:10:07.446Z,27.30
2023-06-20T09:12:47.349Z,27.40
2023-06-20T09:15:19.668Z,27.90
2023-06-20T09:17:53.958Z,27.70
2023-06-20T09:20:21.639Z,27.60
2023-06-20T09:22:48.492Z,27.80
2023-06-20T09:25:21.551Z,27.90
2023-06-20T09:27:49.001Z,28.20
2023-06-20T09:30:15.917Z,28.60
2023-06-20T09:32:43.288Z,27.70
2023-06-20T09:35:11.811Z,27.90
2023-06-20T09:37:48.484Z,28.10
2023-06-20T09:40:21.127Z,28.10
2023-06-20T09:42:48.755Z,28.80
2023-06-20T09:45:17.881Z,28.80
2023-06-20T09:47:46.106Z,28.70
2023-06-20T09:50:17.211Z,28.90
2023-06-20T09:52:48.457Z,29.20
2023-06-20T09:55:16.794Z,28.30
2023-06-20T09:57:48.387Z,28.80
2023-06-20T10:00:16.364Z,29.00
2023-06-20T10:02:50.245Z,29.20
2023-06-20T10:05:22.105Z,28.70
2023-06-20T10:07:50.507Z,28.80
2023-06-20T10:10:18.731Z,28.80
2023-06-20T10:12:47.358Z,29.60
2023-06-20T10:15:15.932Z,29.80
2023-06-20T10:17:44.380Z,29.30
2023-06-20T10:20:32.969Z,29.00
2023-06-20T10:23:05.947Z,29.00
2023-06-20T10:25:34.051Z,28.80
2023-06-20T10:28:06.699Z,29.30
2023-06-20T10:30:51.499Z,29.20
2023-06-20T10:33:38.133Z,29.20
2023-06-20T10:36:09.933Z,29.20
2023-06-20T10:38:45.755Z,29.10
2023-06-20T10:41:26.200Z,28.60
2023-06-20T10:43:57.089Z,29.20
2023-06-20T10:46:29.734Z,29.00
2023-06-20T10:48:56.645Z,28.90
2023-06-20T10:51:23.591Z,29.00
2023-06-20T10:53:50.346Z,28.80
2023-06-20T10:56:27.418Z,29.10
2023-06-20T10:58:54.405Z,29.10
2023-06-20T11:01:26.042Z,29.10
2023-06-20T11:03:53.575Z,29.00
2023-06-20T11:06:20.394Z,28.80
2023-06-20T11:08:47.270Z,29.00
2023-06-20T11:11:14.098Z,28.90
2023-06-20T11:13:44.136Z,29.20
2023-06-20T11:16:20.364Z,29.00
2023-06-20T11:18:47.588Z,29.00
2023-06-20T11:21:17.092Z,29.10
2023-06-20T11:23:43.971Z,29.40
2023-06-20T11:26:10.890Z,29.40
2023-06-20T11:28:39.156Z,28.90
2023-06-20T11:31:11.473Z,29.00
2023-06-20T11:33:39.128Z,28.90
2023-06-20T11:36:06.699Z,29.20
2023-06-20T11:38:36.742Z,29.50
2023-06-20T11:41:07.419Z,29.00
2023-06-20T11:43:42.097Z,29.60
2023-06-20T11:46:10.100Z,29.00
2023-06-20T11:48:37.041Z,29.70
2023-06-20T11:51:06.931Z,29.30
2023-06-20T11:53:36.277Z,29.10
2023-06-20T11:58:43.577Z,29.40
2023-06-20T12:01:22.276Z,29.60
2023-06-20T12:04:11.061Z,29.50
2023-06-20T12:06:40.637Z,29.40
2023-06-20T12:09:15.144Z,29.00
2023-06-20T12:11:48.489Z,29.30
2023-06-20T12:14:16.181Z,29.30
2023-06-20T12:16:43.616Z,29.60
2023-06-20T12:19:10.580Z,29.40
2023-06-20T12:21:41.057Z,29.40
2023-06-20T12:24:08.777Z,29.60
2023-06-20T12:26:37.143Z,29.90
2023-06-20T12:29:04.600Z,29.70
2023-06-20T12:31:32.759Z,29.50
2023-06-20T12:33:59.588Z,29.60
2023-06-20T12:36:28.533Z,29.40
2023-06-20T12:38:55.306Z,29.40
2023-06-20T12:41:22.193Z,30.00
2023-06-20T12:43:49.107Z,30.00
2023-06-20T12:46:16.005Z,30.20
2023-06-20T12:48:42.895Z,30.30
2023-06-20T12:51:09.613Z,30.10
2023-06-20T12:53:36.582Z,29.90
2023-06-20T12:56:03.740Z,29.70
2023-06-20T12:58:33.601Z,29.20
2023-06-20T13:01:00.993Z,30.00
2023-06-20T13:03:28.134Z,30.00
2023-06-20T13:05:55.136Z,30.20
2023-06-20T13:08:21.930Z,30.40
2023-06-20T13:10:48.673Z,30.20
2023-06-20T13:13:15.405Z,30.00
2023-06-20T13:15:42.279Z,30.20
2023-06-20T13:18:10.433Z,29.80
2023-06-20T13:20:37.548Z,30.10
2023-06-20T13:23:04.387Z,29.80
2023-06-20T13:25:32.241Z,30.00
2023-06-20T13:27:59.137Z,30.30
2023-06-20T13:30:26.366Z,30.20
2023-06-20T13:32:53.527Z,30.60
2023-06-20T13:35:22.870Z,30.60
2023-06-20T13:37:51.077Z,30.60
2023-06-20T13:40:18.229Z,30.80
2023-06-20T13:42:49.461Z,30.70
2023-06-20T13:45:18.698Z,30.50
2023-06-20T13:47:46.455Z,30.40
2023-06-20T13:50:15.265Z,30.10
2023-06-20T13:52:42.514Z,29.90
2023-06-20T13:55:11.659Z,30.30
2023-06-20T13:57:38.447Z,30.50
2023-06-20T14:00:12.417Z,30.30
2023-06-20T14:02:42.697Z,30.10
2023-06-20T14:05:11.247Z,30.50
2023-06-20T14:07:38.118Z,30.30
2023-06-20T14:10:05.681Z,30.20
2023-06-20T14:12:32.512Z,30.40
2023-06-20T14:15:00.008Z,30.50
2023-06-20T14:17:27.903Z,30.90
2023-06-20T14:19:54.752Z,31.00
2023-06-20T14:22:21.566Z,30.60
2023-06-20T14:24:48.399Z,30.70
2023-06-20T14:27:15.266Z,30.60
2023-06-20T14:29:42.119Z,30.60
2023-06-20T14:32:08.944Z,30.70
2023-06-20T14:34:35.664Z,30.70
2023-06-20T14:37:02.481Z,31.00
2023-06-20T14:39:29.266Z,30.70
2023-06-20T14:41:55.998Z,31.00
2023-06-20T14:44:25.007Z,30.70
2023-06-20T14:46:53.055Z,30.60
2023-06-20T14:49:20.947Z,30.30
2023-06-20T14:51:49.552Z,30.20
2023-06-20T14:54:18.367Z,30.50
2023-06-20T14:56:50.217Z,30.30
2023-06-20T14:59:17.342Z,29.90
2023-06-20T15:01:44.131Z,30.20
2023-06-20T15:04:12.475Z,30.20
2023-06-20T15:06:40.490Z,30.20
2023-06-20T15:09:07.621Z,30.10
2023-06-20T15:11:35.441Z,30.20
2023-06-20T15:14:02.164Z,30.40
2023-06-20T15:16:29.062Z,30.10
2023-06-20T15:18:56.012Z,30.10
2023-06-20T15:21:22.858Z,30.10
2023-06-20T15:23:49.619Z,29.90
2023-06-20T15:26:16.400Z,29.60
2023-06-20T15:28:45.788Z,29.20
2023-06-20T15:31:15.420Z,28.60
2023-06-20T15:33:42.403Z,28.60
2023-06-20T15:36:09.373Z,28.60
2023-06-20T15:38:36.482Z,28.30
2023-06-20T15:41:06.291Z,28.10
2023-06-20T15:43:36.063Z,28.20
2023-06-20T15:46:03.644Z,28.20
2023-06-20T15:48:30.589Z,27.60
2023-06-20T15:50:57.587Z,27.40
2023-06-20T15:53:25.473Z,27.40
2023-06-20T15:56:00.343Z,27.60
2023-06-20T15:58:28.072Z,26.70
2023-06-20T16:00:54.816Z,26.90
2023-06-20T16:03:21.649Z,27.30
2023-06-20T16:05:48.542Z,26.70
2023-06-20T16:08:15.260Z,27.20
2023-06-20T16:10:41.980Z,27.10
2023-06-20T16:13:08.765Z,27.10
2023-06-20T16:15:35.586Z,26.70
2023-06-20T16:18:02.318Z,27.00
2023-06-20T16:20:30.377Z,26.10
2023-06-20T16:22:57.182Z,26.60
2023-06-20T16:25:23.976Z,27.10
2023-06-20T16:27:52.827Z,26.90
2023-06-20T16:30:20.684Z,26.90
2023-06-20T16:32:48.553Z,26.80
2023-06-20T16:35:15.372Z,26.70
2023-06-20T16:37:42.172Z,27.20
2023-06-20T16:40:09.593Z,27.20
2023-06-20T16:42:36.384Z,26.50
2023-06-20T16:45:03.515Z,27.10
2023-06-20T16:47:30.612Z,27.30
2023-06-20T16:49:57.526Z,27.50
2023-06-20T16:52:24.239Z,27.60
2023-06-20T16:54:52.106Z,27.60
2023-06-20T16:57:19.282Z,26.50
2023-06-20T16:59:46.002Z,26.50
2023-06-20T17:02:14.318Z,25.30
2023-06-20T17:04:41.063Z,24.60
2023-06-20T17:07:07.899Z,25.70
2023-06-20T17:09:35.661Z,26.30
2023-06-20T17:12:02.896Z,26.30
2023-06-20T17:14:29.682Z,27.10
2023-06-20T17:16:58.119Z,27.40
2023-06-20T17:19:25.061Z,27.50
2023-06-20T17:22:02.106Z,27.40
2023-06-20T17:24:37.091Z,27.40
2023-06-20T17:27:03.932Z,27.50
2023-06-20T17:29:30.666Z,27.50
2023-06-20T17:31:59.356Z,27.50
2023-06-20T17:34:26.094Z,27.30
2023-06-20T17:36:53.044Z,27.40
2023-06-20T17:39:22.154Z,27.50
2023-06-20T17:41:49.390Z,26.20
2023-06-20T17:44:16.559Z,26.10
2023-06-20T17:46:55.497Z,26.70
2023-06-20T17:49:23.698Z,26.90
2023-06-20T17:51:50.437Z,27.00
2023-06-20T17:54:17.282Z,27.20
2023-06-20T17:56:44.122Z,27.00
2023-06-20T17:59:10.816Z,26.00
2023-06-20T18:01:37.689Z,26.40
2023-06-20T18:04:04.815Z,26.70
2023-06-20T18:06:31.606Z,26.00
2023-06-20T18:08:58.476Z,26.40
2023-06-20T18:11:25.560Z,26.70
2023-06-20T18:13:52.267Z,26.70
2023-06-20T18:16:19.085Z,26.60
2023-06-20T18:18:47.987Z,26.70
2023-06-20T18:21:14.909Z,26.90
2023-06-20T18:23:41.715Z,26.90
2023-06-20T18:26:08.527Z,26.80
2023-06-20T18:28:36.710Z,26.80
2023-06-20T18:31:03.862Z,26.80
2023-06-20T18:33:30.757Z,26.80
2023-06-20T18:35:57.630Z,26.80
2023-06-20T18:38:24.546Z,26.90
2023-06-20T18:40:51.269Z,26.80
2023-06-20T18:43:18.081Z,26.90
2023-06-20T18:45:44.949Z,26.80
2023-06-20T18:48:11.908Z,26.80
2023-06-20T18:50:40.018Z,26.80
2023-06-20T18:53:06.841Z,26.80
2023-06-20T18:55:33.560Z,26.80
2023-06-20T18:58:00.476Z,26.80
2023-06-20T19:00:27.414Z,26.70
2023-06-20T19:02:54.526Z,26.70
2023-06-20T19:05:21.340Z,26.70
2023-06-20T19:07:49.664Z,26.50
2023-06-20T19:10:16.576Z,26.60
2023-06-20T19:12:43.323Z,26.60
2023-06-20T19:15:10.562Z,26.60
2023-06-20T19:17:38.859Z,26.60
2023-06-20T19:20:07.848Z,26.60
2023-06-20T19:22:34.900Z,26.60
2023-06-20T19:25:02.102Z,26.60
2023-06-20T19:27:29.017Z,26.60
2023-06-20T19:29:55.730Z,26.50
2023-06-20T19:32:22.582Z,26.40
2023-06-20T19:34:50.275Z,26.40
2023-06-20T19:37:17.211Z,26.40
2023-06-20T19:39:44.048Z,26.50
2023-06-20T19:42:10.854Z,26.50
2023-06-20T19:44:37.558Z,26.40
2023-06-20T19:47:04.969Z,26.30
2023-06-20T19:49:31.762Z,26.20
2023-06-20T19:51:58.620Z,26.40
2023-06-20T19:54:25.380Z,26.40
2023-06-20T19:56:54.185Z,26.30
2023-06-20T19:59:21.345Z,26.20
2023-06-20T20:01:49.214Z,26.30
2023-06-20T20:04:16.035Z,26.20
2023-06-20T20:06:43.895Z,26.00
2023-06-20T20:09:10.691Z,26.00
2023-06-20T20:11:37.466Z,26.00
2023-06-20T20:14:04.234Z,25.90
2023-06-20T20:16:30.997Z,25.70
2023-06-20T20:18:57.778Z,25.60
2023-06-20T20:21:24.576Z,25.50
2023-06-20T20:23:51.384Z,25.50
2023-06-20T20:26:18.151Z,25.70
2023-06-20T20:28:46.084Z,25.60
2023-06-20T20:31:13.031Z,25.30
2023-06-20T20:33:39.881Z,25.10
2023-06-20T20:36:06.798Z,24.90
2023-06-20T20:38:33.654Z,25.10
2023-06-20T20:41:00.557Z,25.00
2023-06-20T20:43:27.304Z,24.90
2023-06-20T20:45:54.642Z,25.30
2023-06-20T20:48:23.121Z,25.70
2023-06-20T20:50:49.816Z,25.30
2023-06-20T20:53:16.640Z,25.20
2023-06-20T20:55:43.551Z,24.90
2023-06-20T20:58:10.446Z,25.20
2023-06-20T21:00:37.139Z,25.10
2023-06-20T21:03:06.264Z,25.00
2023-06-20T21:05:34.050Z,24.90
2023-06-20T21:08:01.129Z,25.20
2023-06-20T21:10:30.408Z,25.20
2023-06-20T21:12:57.204Z,25.30
2023-06-20T21:15:24.112Z,25.20
2023-06-20T21:17:51.090Z,25.20
2023-06-20T21:20:17.906Z,25.40
2023-06-20T21:22:44.881Z,25.60
2023-06-20T21:25:11.622Z,25.70
2023-06-20T21:27:38.347Z,25.40
2023-06-20T21:30:05.739Z,25.20
2023-06-20T21:32:32.492Z,25.40
2023-06-20T21:35:00.982Z,25.50
2023-06-20T21:37:29.369Z,25.50
2023-06-20T21:39:56.104Z,25.60
2023-06-20T21:42:22.854Z,25.50
2023-06-20T21:44:49.531Z,25.60
2023-06-20T21:47:16.394Z,25.60
2023-06-20T21:49:44.167Z,25.70
2023-06-20T21:52:10.871Z,25.50
2023-06-20T21:54:37.629Z,25.50
2023-06-20T21:57:04.718Z,25.60
2023-06-20T21:59:35.076Z,25.70
2023-06-20T22:02:02.866Z,25.40
2023-06-20T22:04:29.637Z,25.00
2023-06-20T22:06:56.350Z,25.10
2023-06-20T22:09:23.130Z,25.20
2023-06-20T22:11:50.084Z,25.00
2023-06-20T22:14:16.824Z,24.80
2023-06-20T22:16:43.585Z,24.70
2023-06-20T22:19:11.315Z,25.00
2023-06-20T22:21:38.143Z,25.20
2023-06-20T22:24:05.252Z,24.90
2023-06-20T22:26:32.001Z,24.70
2023-06-20T22:28:58.755Z,24.60
2023-06-20T22:31:25.664Z,24.70
2023-06-20T22:33:52.487Z,25.10
2023-06-20T22:36:20.006Z,25.10
2023-06-20T22:38:47.428Z,25.00
2023-06-20T22:41:14.395Z,24.80
2023-06-20T22:43:42.048Z,25.00
2023-06-20T22:46:09.503Z,25.20
2023-06-20T22:48:36.435Z,25.00
2023-06-20T22:51:03.829Z,25.10
2023-06-20T22:53:30.700Z,24.90
2023-06-20T22:55:57.539Z,24.90
2023-06-20T22:58:24.232Z,24.80
2023-06-20T23:00:51.008Z,24.90
2023-06-20T23:03:19.261Z,24.70
2023-06-20T23:05:46.185Z,24.90
2023-06-20T23:08:13.000Z,24.90
2023-06-20T23:10:39.862Z,24.80
2023-06-20T23:13:06.652Z,24.70
2023-06-20T23:15:33.403Z,24.50
2023-06-20T23:18:00.257Z,24.40
2023-06-20T23:20:27.267Z,24.40
2023-06-20T23:22:54.197Z,24.30
2023-06-20T23:25:21.034Z,24.30
2023-06-20T23:27:47.750Z,24.70
2023-06-20T23:30:14.612Z,24.50
2023-06-20T23:32:41.584Z,24.40
2023-06-20T23:35:09.180Z,24.60
2023-06-20T23:37:39.618Z,24.80
2023-06-20T23:40:13.470Z,24.70
2023-06-20T23:42:41.232Z,24.70
2023-06-20T23:45:09.167Z,24.40
2023-06-20T23:47:36.058Z,24.20
2023-06-20T23:50:02.905Z,24.20
2023-06-20T23:52:29.671Z,24.60
2023-06-20T23:54:56.841Z,24.30
2023-06-20T23:57:23.570Z,24.40
2023-06-20T23:59:51.558Z,24.20
